St Helier, United Kingdom
Current Conditions -  °F | °C
As of 4:50 AM on Thursday 23 Oct 2014 (Local Time) from EGJJ Reporting Station
Broken Clouds Broken Clouds  
Wind Chill: 13°   Ceiling: 2500
Heat Index: 13°   Visibility: 6mi
Dew Point:   Wind: 13mph
Humidity: 77%   Direction: 230°SW
Pressure: 30.24"   Gusts: NA
Location:  49.18°N, 2.1°W
Report Text: EGJJ 230350Z 23011KT 9999 BKN025 13/09 Q1024 NOSIG
Loading
Personal Weather Stations






























Interactive Weather Map
Tropical Storm Tracking
New forecast layout! Learn more

10-Day Weather Forecast

Advertisements
Track Severe Weather on mobile